Time;durP1;ratioP1;P1;durP2;ratioP2;P2;SDS_P1;SDS_P2;PMS_P1;PMS_P2;Temp;Humidity;BMP_temperature;BMP_pressure;BME280_temperature;BME280_humidity;BME280_pressure;Samples;Min_cycle;Max_cycle;Signal;HPM_P1;HPM_P2
2022/12/13 00:00:19;;;;;;;42.70;19.00;;;-3.20;99.90;;;;;;4900465;29;20390;-68
2022/12/13 00:02:45;;;;;;;38.88;18.20;;;-3.20;99.90;;;;;;4901482;29;20426;-68
2022/12/13 00:05:11;;;;;;;33.30;16.23;;;-3.20;99.90;;;;;;4901029;29;20064;-68
2022/12/13 00:07:38;;;;;;;39.05;17.88;;;-3.20;99.90;;;;;;4900921;29;20084;-70
2022/12/13 00:10:05;;;;;;;39.70;17.70;;;-3.30;99.90;;;;;;4901356;29;20507;-69
2022/12/13 00:12:30;;;;;;;42.00;19.35;;;-3.30;99.90;;;;;;4899507;29;20044;-69
2022/12/13 00:14:56;;;;;;;41.28;19.05;;;-3.30;99.90;;;;;;4906805;29;20029;-68
2022/12/13 00:17:22;;;;;;;42.83;18.13;;;-3.20;99.90;;;;;;4912600;29;20490;-69
2022/12/13 00:19:48;;;;;;;38.50;17.00;;;-3.30;99.90;;;;;;4900540;29;20060;-69
2022/12/13 00:22:15;;;;;;;41.85;18.35;;;-3.30;99.90;;;;;;4900559;29;20455;-69
2022/12/13 00:24:41;;;;;;;40.17;18.27;;;-3.30;99.90;;;;;;4900495;29;20029;-69
2022/12/13 00:27:06;;;;;;;45.42;18.55;;;-3.30;99.90;;;;;;4900360;29;20089;-68
2022/12/13 00:29:32;;;;;;;39.10;17.23;;;-3.30;99.90;;;;;;4900321;29;20419;-69
2022/12/13 00:31:57;;;;;;;40.10;17.77;;;-3.40;99.90;;;;;;4900473;29;20471;-69
2022/12/13 00:34:24;;;;;;;43.10;17.97;;;-3.40;99.90;;;;;;4900343;29;20394;-68
2022/12/13 00:36:50;;;;;;;39.63;17.10;;;-3.40;99.90;;;;;;4899009;29;20029;-68
2022/12/13 00:39:17;;;;;;;40.00;17.40;;;-3.30;99.90;;;;;;4900224;29;20119;-68
2022/12/13 00:41:43;;;;;;;40.53;17.35;;;-3.30;99.90;;;;;;4900088;29;20147;-69
2022/12/13 00:44:11;;;;;;;37.75;17.23;;;-3.30;99.90;;;;;;4900400;29;20036;-69
2022/12/13 00:46:37;;;;;;;46.40;19.73;;;-3.30;99.90;;;;;;4900045;29;20036;-69
2022/12/13 00:49:04;;;;;;;45.42;20.42;;;-3.40;99.90;;;;;;4898968;29;20606;-69
2022/12/13 00:51:31;;;;;;;38.00;17.02;;;-3.40;99.90;;;;;;4900020;29;20497;-68
2022/12/13 00:53:58;;;;;;;36.88;17.80;;;-3.40;99.90;;;;;;4898830;29;20032;-69
2022/12/13 00:56:26;;;;;;;36.65;17.00;;;-3.40;99.90;;;;;;4900029;29;20492;-69
2022/12/13 00:58:53;;;;;;;40.80;18.15;;;-3.40;99.90;;;;;;4900031;29;20458;-69
2022/12/13 01:01:21;;;;;;;;;;;-3.40;99.90;;;;;;4900070;29;20033;-69
2022/12/13 01:03:46;;;;;;;42.80;16.70;;;-3.50;99.90;;;;;;4900240;29;19967;-69
2022/12/13 01:06:16;;;;;;;37.57;17.23;;;-3.50;99.90;;;;;;4900346;29;20029;-69
2022/12/13 01:08:41;;;;;;;38.92;17.00;;;-3.50;99.90;;;;;;4899118;29;20194;-69
2022/12/13 01:11:08;;;;;;;40.00;18.02;;;-3.50;99.90;;;;;;4898668;29;20076;-69
2022/12/13 01:13:33;;;;;;;40.13;17.20;;;-3.40;99.90;;;;;;4898626;29;20036;-69
2022/12/13 01:16:02;;;;;;;38.55;18.13;;;-3.50;99.90;;;;;;4899540;29;20021;-69
2022/12/13 01:18:27;;;;;;;42.13;18.08;;;-3.50;99.90;;;;;;4898483;29;20037;-69
2022/12/13 01:21:02;;;;;;;39.30;17.53;;;-3.50;99.90;;;;;;4898323;29;20127;-69
2022/12/13 01:23:28;;;;;;;35.95;16.23;;;-3.50;99.90;;;;;;4899721;29;20028;-69
2022/12/13 01:25:54;;;;;;;41.00;17.92;;;-3.50;99.90;;;;;;4909041;29;20025;-69
2022/12/13 01:28:19;;;;;;;38.00;16.88;;;-3.50;99.90;;;;;;4905891;29;20505;-68
2022/12/13 01:30:54;;;;;;;39.28;18.65;;;-3.50;99.90;;;;;;4900116;29;20025;-68
2022/12/13 01:33:19;;;;;;;37.95;16.67;;;-3.50;99.90;;;;;;4898314;29;20084;-69
2022/12/13 01:35:45;;;;;;;40.38;17.88;;;-3.40;99.90;;;;;;4898038;29;20028;-69
2022/12/13 01:38:10;;;;;;;44.77;18.03;;;-3.50;99.90;;;;;;4899280;29;20107;-69
2022/12/13 01:40:43;;;;;;;40.73;18.17;;;-3.40;99.90;;;;;;4899192;29;20028;-69
2022/12/13 01:43:12;;;;;;;42.03;18.33;;;-3.50;99.90;;;;;;4899374;29;20338;-68
2022/12/13 01:45:38;;;;;;;38.55;17.50;;;-3.50;99.90;;;;;;4898701;29;20031;-69
2022/12/13 01:48:08;;;;;;;37.83;17.17;;;-3.50;99.90;;;;;;4897842;29;20032;-69
2022/12/13 01:50:40;;;;;;;41.33;18.00;;;-3.50;99.90;;;;;;4899632;29;20415;-69
2022/12/13 01:53:08;;;;;;;39.33;17.20;;;-3.60;99.90;;;;;;4897895;29;20028;-69
2022/12/13 01:55:36;;;;;;;41.63;18.27;;;-3.60;99.90;;;;;;4898094;29;20025;-69
2022/12/13 01:58:03;;;;;;;37.75;16.40;;;-3.60;99.90;;;;;;4899746;29;20029;-69
2022/12/13 02:00:30;;;;;;;38.65;16.88;;;-3.60;99.90;;;;;;4899986;29;20060;-68
2022/12/13 02:02:57;;;;;;;37.67;16.63;;;-3.70;99.90;;;;;;4900040;29;20036;-69
2022/12/13 02:05:35;;;;;;;39.75;17.85;;;-3.70;99.90;;;;;;4899677;29;20033;-69
2022/12/13 02:08:01;;;;;;;43.10;18.08;;;-3.70;99.90;;;;;;4897721;29;20478;-71
2022/12/13 02:10:28;;;;;;;42.42;18.52;;;-3.70;99.90;;;;;;4898789;29;20035;-70
2022/12/13 02:12:54;;;;;;;42.47;18.60;;;-3.80;99.90;;;;;;4899026;29;20435;-70
2022/12/13 02:15:21;;;;;;;39.50;18.02;;;-3.80;99.90;;;;;;4897767;29;20033;-71
2022/12/13 02:17:51;;;;;;;;;;;-3.80;99.90;;;;;;4897797;29;20100;-70
2022/12/13 02:20:47;;;;;;;38.08;16.73;;;-3.90;99.90;;;;;;4897689;29;19940;-70
2022/12/13 02:23:52;;;;;;;39.88;17.48;;;-3.90;99.90;;;;;;4897488;29;20075;-70
2022/12/13 02:26:35;;;;;;;38.03;16.52;;;-3.90;99.90;;;;;;4898986;29;20029;-70
2022/12/13 02:29:27;;;;;;;47.95;17.77;;;-3.90;99.90;;;;;;4899044;29;20088;-70
2022/12/13 02:32:06;;;;;;;42.10;18.27;;;-3.90;99.90;;;;;;4877446;29;20041;-70
2022/12/13 02:35:00;;;;;;;39.90;16.95;;;-4.00;99.90;;;;;;4904681;29;20029;-70
2022/12/13 02:37:37;;;;;;;40.92;17.83;;;-3.90;99.90;;;;;;4898184;29;20120;-70
2022/12/13 02:40:26;;;;;;;39.42;16.60;;;-3.90;99.90;;;;;;4897108;29;20037;-70
2022/12/13 02:43:21;;;;;;;37.85;17.05;;;-3.90;99.90;;;;;;4889190;29;20492;-69
2022/12/13 02:45:57;;;;;;;35.90;17.17;;;-3.90;99.90;;;;;;4898057;29;20028;-70
2022/12/13 02:48:27;;;;;;;39.83;17.05;;;-4.00;99.90;;;;;;4896919;29;20569;-70
2022/12/13 02:50:54;;;;;;;38.05;17.67;;;-3.90;99.90;;;;;;4897103;29;20397;-70
2022/12/13 02:53:21;;;;;;;39.05;17.88;;;-4.00;99.90;;;;;;4898858;29;20020;-70
2022/12/13 02:55:47;;;;;;;42.58;17.58;;;-4.00;99.90;;;;;;4898464;29;20064;-70
2022/12/13 02:58:17;;;;;;;40.58;17.90;;;-4.00;99.90;;;;;;4898277;29;20032;-71
2022/12/13 03:00:52;;;;;;;43.17;18.42;;;-4.00;99.90;;;;;;4898106;29;20430;-70
2022/12/13 03:03:47;;;;;;;41.25;17.33;;;-4.00;99.90;;;;;;4898345;29;20033;-69
2022/12/13 03:06:34;;;;;;;42.85;18.30;;;-4.00;99.90;;;;;;4898642;29;20439;-71
2022/12/13 03:09:06;;;;;;;48.42;19.02;;;-4.10;99.90;;;;;;4898379;29;20037;-70
2022/12/13 03:14:22;;;;;;;44.47;18.58;;;-4.10;99.90;;;;;;4898648;29;20031;-71
2022/12/13 03:16:50;;;;;;;41.03;18.10;;;-4.10;99.90;;;;;;4896748;29;20178;-69
2022/12/13 03:19:15;;;;;;;39.22;16.55;;;-4.10;99.90;;;;;;4896957;29;20036;-70
2022/12/13 03:21:44;;;;;;;47.93;20.17;;;-4.20;99.90;;;;;;4897163;29;20036;-70
2022/12/13 03:24:10;;;;;;;45.40;18.77;;;-4.20;99.90;;;;;;4901997;29;20049;-71
2022/12/13 03:26:38;;;;;;;39.65;18.50;;;-4.30;99.90;;;;;;4900936;29;20032;-70
2022/12/13 03:29:04;;;;;;;46.58;18.40;;;-4.30;99.90;;;;;;4900159;29;20060;-70
2022/12/13 03:31:30;;;;;;;50.20;20.42;;;-4.30;99.90;;;;;;4896509;29;20040;-70
2022/12/13 03:33:55;;;;;;;47.70;19.50;;;-4.30;99.90;;;;;;4896899;29;20025;-70
2022/12/13 03:36:21;;;;;;;43.17;19.20;;;-4.30;99.90;;;;;;4898051;29;20071;-71
2022/12/13 03:38:48;;;;;;;45.13;19.93;;;-4.30;99.90;;;;;;4897153;29;20036;-71
2022/12/13 03:41:17;;;;;;;45.55;18.48;;;-4.30;99.90;;;;;;4897971;29;20268;-71
2022/12/13 03:43:43;;;;;;;44.60;18.92;;;-4.40;99.90;;;;;;4898026;29;20020;-71
2022/12/13 03:46:10;;;;;;;42.67;19.60;;;-4.40;99.90;;;;;;4897794;29;20521;-70
2022/12/13 03:48:35;;;;;;;44.28;18.23;;;-4.40;99.90;;;;;;4897022;29;20482;-71
2022/12/13 03:51:01;;;;;;;41.00;18.83;;;-4.40;99.90;;;;;;4893459;29;20021;-71
2022/12/13 03:53:28;;;;;;;44.83;19.65;;;-4.40;99.90;;;;;;4879469;29;20399;-70
2022/12/13 03:55:53;;;;;;;;;;;-4.50;99.90;;;;;;4882446;29;20203;-71
2022/12/13 03:58:19;;;;;;;43.90;18.15;;;-4.50;99.90;;;;;;4900970;29;19951;-70
2022/12/13 04:00:45;;;;;;;48.35;20.05;;;-4.50;99.90;;;;;;4901274;29;20029;-70
2022/12/13 04:03:10;;;;;;;45.78;19.15;;;-4.60;99.90;;;;;;4901811;29;20065;-70
2022/12/13 04:05:36;;;;;;;45.47;18.43;;;-4.60;99.90;;;;;;4900025;29;20482;-71
2022/12/13 04:08:01;;;;;;;45.33;18.90;;;-4.50;99.90;;;;;;4901356;29;20037;-70
2022/12/13 04:10:27;;;;;;;45.43;20.47;;;-4.50;99.90;;;;;;4901413;29;20028;-71
2022/12/13 04:15:37;;;;;;;49.17;20.77;;;-4.60;99.90;;;;;;4901154;29;20057;-70
2022/12/13 04:18:03;;;;;;;43.63;18.77;;;-4.60;99.90;;;;;;4899589;29;20037;-70
2022/12/13 04:20:29;;;;;;;47.17;20.47;;;-4.60;99.90;;;;;;4901078;29;20052;-70
2022/12/13 04:22:54;;;;;;;44.17;19.00;;;-4.60;99.90;;;;;;4901134;29;20466;-70
2022/12/13 04:25:20;;;;;;;47.40;19.53;;;-4.60;99.90;;;;;;4899816;29;20112;-70
2022/12/13 04:27:45;;;;;;;43.13;18.40;;;-4.60;99.90;;;;;;4886622;29;20293;-70
2022/12/13 04:30:12;;;;;;;45.03;19.33;;;-4.60;99.90;;;;;;4880832;29;20032;-70
2022/12/13 04:32:37;;;;;;;44.65;19.02;;;-4.60;99.90;;;;;;4880771;29;20427;-70
2022/12/13 04:35:03;;;;;;;45.83;18.73;;;-4.60;99.90;;;;;;4880606;29;20068;-70
2022/12/13 04:37:29;;;;;;;44.78;18.92;;;-4.60;99.90;;;;;;4881797;29;20084;-70
2022/12/13 04:39:55;;;;;;;45.30;19.45;;;-4.60;99.90;;;;;;4881742;29;20447;-69
2022/12/13 04:42:21;;;;;;;43.83;18.80;;;-4.70;99.90;;;;;;4881506;29;20025;-69
2022/12/13 04:44:48;;;;;;;55.77;23.60;;;-4.60;99.90;;;;;;4881523;29;20037;-70
2022/12/13 04:47:14;;;;;;;49.33;20.52;;;-4.60;99.90;;;;;;4881152;29;20288;-70
2022/12/13 04:49:40;;;;;;;45.70;19.38;;;-4.60;99.90;;;;;;4880901;29;20029;-73
2022/12/13 04:52:05;;;;;;;46.53;19.47;;;-4.60;99.90;;;;;;4915419;29;20040;-70
2022/12/13 04:54:31;;;;;;;45.63;18.03;;;-4.60;99.90;;;;;;4902756;29;20116;-70
2022/12/13 04:56:57;;;;;;;47.08;20.38;;;-4.70;99.90;;;;;;4900672;29;20032;-70
2022/12/13 04:59:23;;;;;;;49.42;20.30;;;-4.70;99.90;;;;;;4900444;29;20061;-70
2022/12/13 05:01:48;;;;;;;44.10;18.43;;;-4.70;99.90;;;;;;4899866;29;20049;-70
2022/12/13 05:04:14;;;;;;;45.23;18.80;;;-4.60;99.90;;;;;;4900497;29;20033;-70
2022/12/13 05:06:39;;;;;;;44.33;19.30;;;-4.60;99.90;;;;;;4898038;29;20085;-70
2022/12/13 05:09:06;;;;;;;48.13;20.50;;;-4.60;99.90;;;;;;4900291;29;20029;-70
2022/12/13 05:11:32;;;;;;;42.55;19.13;;;-4.70;99.90;;;;;;4899042;29;20033;-70
2022/12/13 05:13:58;;;;;;;45.03;19.08;;;-4.60;99.90;;;;;;4899016;29;20418;-70
2022/12/13 05:16:23;;;;;;;47.83;19.93;;;-4.60;99.90;;;;;;4906708;29;20036;-70
2022/12/13 05:18:49;;;;;;;43.77;19.60;;;-4.70;99.90;;;;;;4905265;29;20538;-69
2022/12/13 05:21:14;;;;;;;44.83;19.07;;;-4.60;99.90;;;;;;4902022;29;20064;-70
2022/12/13 05:23:40;;;;;;;44.60;18.93;;;-4.60;99.90;;;;;;4900621;29;20040;-70
2022/12/13 05:26:06;;;;;;;40.10;17.93;;;-4.70;99.90;;;;;;4899332;29;20088;-70
2022/12/13 05:28:31;;;;;;;48.00;19.83;;;-4.70;99.90;;;;;;4881000;29;20037;-69
2022/12/13 05:31:04;;;;;;;48.28;19.67;;;-4.80;99.90;;;;;;4880108;29;20056;-68
2022/12/13 05:33:31;;;;;;;42.63;17.52;;;-4.80;99.90;;;;;;4883782;29;20085;-71
2022/12/13 05:35:56;;;;;;;46.75;18.95;;;-4.80;99.90;;;;;;4885646;29;20423;-70
2022/12/13 05:38:22;;;;;;;45.13;19.10;;;-4.70;99.90;;;;;;4884142;29;20036;-70
2022/12/13 05:40:47;;;;;;;47.07;18.63;;;-4.70;99.90;;;;;;4882823;29;20078;-70
2022/12/13 05:43:13;;;;;;;44.10;20.23;;;-4.70;99.90;;;;;;4882691;29;20029;-72
2022/12/13 05:45:39;;;;;;;44.17;17.80;;;-4.80;99.90;;;;;;4881783;29;20029;-71
2022/12/13 05:48:04;;;;;;;50.08;19.67;;;-4.80;99.90;;;;;;4879494;29;20041;-69
2022/12/13 05:50:30;;;;;;;48.00;20.10;;;-4.80;99.90;;;;;;4885267;29;20025;-69
2022/12/13 05:52:55;;;;;;;47.90;19.03;;;-4.80;99.90;;;;;;4899575;29;20036;-69
2022/12/13 05:55:21;;;;;;;50.17;21.53;;;-4.80;99.90;;;;;;4899536;29;20024;-69
2022/12/13 05:57:46;;;;;;;51.33;20.47;;;-4.80;99.90;;;;;;4897921;29;20051;-68
2022/12/13 06:00:12;;;;;;;47.37;18.67;;;-4.80;99.90;;;;;;4898861;29;20446;-69
2022/12/13 06:02:40;;;;;;;46.08;19.10;;;-4.80;99.90;;;;;;4898927;29;20080;-69
2022/12/13 06:05:06;;;;;;;45.90;19.90;;;-4.90;99.90;;;;;;4899040;29;20033;-69
2022/12/13 06:07:32;;;;;;;44.95;19.63;;;-4.90;99.90;;;;;;4899015;29;20489;-68
2022/12/13 06:09:58;;;;;;;46.97;20.00;;;-4.90;99.90;;;;;;4897506;29;20507;-73
2022/12/13 06:12:23;;;;;;;50.10;20.97;;;-4.90;99.90;;;;;;4897523;29;20111;-69
2022/12/13 06:14:49;;;;;;;47.42;18.75;;;-4.90;99.90;;;;;;4897625;29;20119;-68
2022/12/13 06:17:14;;;;;;;45.83;19.57;;;-4.90;99.90;;;;;;4898295;29;20055;-67
2022/12/13 06:19:40;;;;;;;48.10;20.50;;;-4.90;99.90;;;;;;4898582;29;20350;-68
2022/12/13 06:22:06;;;;;;;50.37;19.43;;;-5.00;99.90;;;;;;4894095;29;20043;-69
2022/12/13 06:24:31;;;;;;;53.90;20.83;;;-5.00;99.90;;;;;;4897713;29;20233;-72
2022/12/13 06:26:58;;;;;;;47.93;19.97;;;-5.00;99.90;;;;;;4916470;29;20078;-72
2022/12/13 06:29:25;;;;;;;50.40;20.88;;;-5.00;99.90;;;;;;4917805;29;20020;-72
2022/12/13 06:31:52;;;;;;;49.05;20.60;;;-5.00;99.90;;;;;;4909475;29;20032;-72
2022/12/13 06:34:18;;;;;;;48.13;19.67;;;-5.00;99.90;;;;;;4879891;29;20025;-72
2022/12/13 06:36:43;;;;;;;51.93;21.03;;;-5.00;99.90;;;;;;4878304;29;20033;-72
2022/12/13 06:39:09;;;;;;;48.37;19.97;;;-5.10;99.90;;;;;;4884563;29;20040;-72
2022/12/13 06:41:35;;;;;;;50.67;20.40;;;-5.10;99.90;;;;;;4897263;29;20025;-72
2022/12/13 06:44:01;;;;;;;;;;;-5.10;99.90;;;;;;4897087;29;20115;-73
2022/12/13 06:46:28;;;;;;;56.63;21.40;;;-5.10;99.90;;;;;;4906295;29;19930;-72
2022/12/13 06:48:53;;;;;;;46.20;20.13;;;-5.10;99.90;;;;;;4916365;29;20028;-73
2022/12/13 06:51:19;;;;;;;46.00;19.97;;;-5.10;99.90;;;;;;4905307;29;20273;-72
2022/12/13 06:53:44;;;;;;;53.07;20.40;;;-5.10;99.90;;;;;;4898865;29;20033;-71
2022/12/13 06:56:13;;;;;;;49.07;20.60;;;-5.10;99.90;;;;;;4897165;29;20119;-73
2022/12/13 06:58:39;;;;;;;47.88;20.88;;;-5.10;99.90;;;;;;4898681;29;20415;-72
2022/12/13 07:01:06;;;;;;;;;;;-5.00;99.90;;;;;;4897363;29;20043;-68
2022/12/13 07:03:33;;;;;;;51.72;20.40;;;-5.00;99.90;;;;;;4896751;29;19958;-70
2022/12/13 07:06:19;;;;;;;48.30;18.45;;;-5.10;99.90;;;;;;4898721;29;20039;-70
2022/12/13 07:08:55;;;;;;;51.05;21.63;;;-5.10;99.90;;;;;;4902341;29;20024;-68
2022/12/13 07:11:26;;;;;;;53.97;21.73;;;-5.10;99.90;;;;;;4905804;29;20017;-69
2022/12/13 07:13:52;;;;;;;55.47;21.95;;;-5.00;99.90;;;;;;4901308;29;20021;-68
2022/12/13 07:16:19;;;;;;;53.85;21.17;;;-5.00;99.90;;;;;;4899087;29;20478;-69
2022/12/13 07:18:44;;;;;;;;;;;-5.00;99.90;;;;;;4898892;29;20060;-69
2022/12/13 07:21:12;;;;;;;52.28;21.02;;;-5.00;99.90;;;;;;4885626;29;19963;-69
2022/12/13 07:23:39;;;;;;;51.38;21.08;;;-5.10;99.90;;;;;;4888427;29;20047;-69
2022/12/13 07:26:06;;;;;;;59.50;23.00;;;-5.10;99.90;;;;;;4893680;29;20033;-68
2022/12/13 07:28:33;;;;;;;49.45;20.90;;;-5.10;99.90;;;;;;4894685;29;20039;-68
2022/12/13 07:31:03;;;;;;;57.17;21.02;;;-5.10;99.90;;;;;;4901158;29;20044;-68
2022/12/13 07:33:29;;;;;;;48.53;20.20;;;-5.00;99.90;;;;;;4901781;29;20119;-68
2022/12/13 07:36:12;;;;;;;50.88;21.48;;;-5.00;99.90;;;;;;4901527;29;20099;-68
2022/12/13 07:38:38;;;;;;;51.78;20.45;;;-4.90;99.90;;;;;;4902356;29;20040;-69
2022/12/13 07:41:05;;;;;;;51.58;20.67;;;-4.90;99.90;;;;;;4902084;29;20032;-69
2022/12/13 07:43:31;;;;;;;50.95;22.88;;;-4.90;99.90;;;;;;4902071;29;20084;-69
2022/12/13 07:45:58;;;;;;;49.60;21.10;;;-4.90;99.90;;;;;;4900795;29;20035;-68
2022/12/13 07:48:25;;;;;;;50.30;20.48;;;-4.80;99.90;;;;;;4901957;29;20423;-70
2022/12/13 07:50:51;;;;;;;51.30;21.50;;;-4.90;99.90;;;;;;4911748;29;20028;-68
2022/12/13 07:53:17;;;;;;;48.00;20.88;;;-4.80;99.90;;;;;;4915289;29;20025;-69
2022/12/13 07:55:42;;;;;;;48.73;20.50;;;-4.80;99.90;;;;;;4914923;29;20041;-69
2022/12/13 07:58:10;;;;;;;48.70;20.73;;;-4.80;99.90;;;;;;4912203;29;20529;-68
2022/12/13 08:00:43;;;;;;;47.03;21.38;;;-4.80;99.90;;;;;;4902346;29;20059;-69
2022/12/13 08:03:08;;;;;;;46.42;20.17;;;-4.70;99.90;;;;;;4906357;29;20486;-68
2022/12/13 08:05:35;;;;;;;52.70;20.08;;;-4.70;99.90;;;;;;4929115;23;20040;-74
2022/12/13 08:08:02;;;;;;;45.20;19.55;;;-4.60;99.90;;;;;;4903781;29;20048;-75
2022/12/13 08:10:28;;;;;;;44.10;19.88;;;-4.70;99.90;;;;;;4904945;29;20041;-73
2022/12/13 08:12:54;;;;;;;52.80;21.70;;;-4.60;99.90;;;;;;4903688;29;20057;-75
2022/12/13 08:15:20;;;;;;;47.08;20.25;;;-4.60;99.90;;;;;;4905542;29;20032;-74
2022/12/13 08:17:46;;;;;;;43.45;19.30;;;-4.50;99.90;;;;;;4905474;29;20028;-74
2022/12/13 08:20:12;;;;;;;49.00;20.55;;;-4.50;99.90;;;;;;4899838;29;20405;-75
2022/12/13 08:22:38;;;;;;;46.77;19.63;;;-4.40;99.90;;;;;;4916215;29;20037;-73
2022/12/13 08:25:05;;;;;;;47.60;19.73;;;-4.40;99.90;;;;;;4901411;29;20332;-73
2022/12/13 08:27:31;;;;;;;44.88;19.00;;;-4.40;99.90;;;;;;4900042;29;20060;-74
2022/12/13 08:29:57;;;;;;;49.50;20.33;;;-4.30;99.90;;;;;;4900440;29;20036;-73
2022/12/13 08:32:23;;;;;;;46.57;19.27;;;-4.30;99.90;;;;;;4901591;29;20096;-73
2022/12/13 08:34:49;;;;;;;45.40;19.92;;;-4.30;99.90;;;;;;4900306;29;20029;-74
2022/12/13 08:37:15;;;;;;;48.05;20.60;;;-4.40;99.90;;;;;;4917282;29;20485;-74
2022/12/13 08:39:41;;;;;;;42.50;19.15;;;-4.30;99.90;;;;;;4919335;29;20032;-75
2022/12/13 08:42:14;;;;;;;47.08;20.40;;;-4.40;99.90;;;;;;4919318;29;20175;-74
2022/12/13 08:44:40;;;;;;;48.53;20.92;;;-4.30;99.90;;;;;;4920466;29;20405;-73
2022/12/13 08:47:05;;;;;;;44.60;18.80;;;-4.30;99.90;;;;;;4920259;29;20035;-74
2022/12/13 08:49:31;;;;;;;42.20;19.73;;;-4.40;99.90;;;;;;4918983;29;20031;-75
2022/12/13 08:51:57;;;;;;;42.88;19.77;;;-4.30;99.90;;;;;;4918669;29;20024;-75
2022/12/13 08:54:23;;;;;;;49.85;21.75;;;-4.20;99.90;;;;;;4920179;29;20032;-73
2022/12/13 08:56:48;;;;;;;45.17;20.07;;;-4.20;99.90;;;;;;4920329;29;20426;-74
2022/12/13 08:59:14;;;;;;;47.70;19.43;;;-4.00;99.90;;;;;;4918729;29;20111;-74
2022/12/13 09:01:39;;;;;;;45.60;20.07;;;-4.00;99.90;;;;;;4919224;29;20029;-74
2022/12/13 09:04:05;;;;;;;39.93;18.53;;;-3.90;99.90;;;;;;4918782;29;20030;-73
2022/12/13 09:06:31;;;;;;;38.70;18.03;;;-3.80;99.90;;;;;;4923138;29;20056;-74
2022/12/13 09:08:56;;;;;;;46.90;20.50;;;-3.80;99.90;;;;;;4927899;29;20059;-74
2022/12/13 09:11:22;;;;;;;38.60;18.60;;;-3.70;99.90;;;;;;4928316;29;20067;-74
2022/12/13 09:13:48;;;;;;;46.75;19.67;;;-3.70;99.90;;;;;;4924808;29;20028;-74
2022/12/13 09:16:22;;;;;;;45.67;18.48;;;-3.60;99.90;;;;;;4918522;29;20060;-74
2022/12/13 09:18:48;;;;;;;37.58;18.55;;;-3.50;99.90;;;;;;4918610;29;20496;-74
2022/12/13 09:21:14;;;;;;;43.85;19.27;;;-3.30;99.90;;;;;;4919095;29;20354;-74
2022/12/13 09:23:43;;;;;;;37.50;17.80;;;-3.40;99.90;;;;;;4917975;29;20028;-73
2022/12/13 09:26:14;;;;;;;46.55;19.73;;;-3.30;99.90;;;;;;4917646;29;20100;-74
2022/12/13 09:28:41;;;;;;;43.72;17.52;;;-3.30;99.90;;;;;;4917804;29;20028;-73
2022/12/13 09:31:07;;;;;;;41.53;17.52;;;-3.20;99.90;;;;;;4917708;29;20028;-73
2022/12/13 09:33:33;;;;;;;38.63;18.42;;;-3.10;99.90;;;;;;4918874;29;20474;-74
2022/12/13 09:35:58;;;;;;;38.70;18.17;;;-3.00;99.90;;;;;;4917377;29;20040;-74
2022/12/13 09:38:24;;;;;;;36.50;17.23;;;-3.00;99.90;;;;;;4917582;29;20048;-73
2022/12/13 09:40:53;;;;;;;33.80;16.07;;;-2.90;99.90;;;;;;4917652;29;20039;-74
2022/12/13 09:43:24;;;;;;;36.42;16.60;;;-2.90;99.90;;;;;;4917240;29;20032;-73
2022/12/13 09:45:50;;;;;;;37.97;16.50;;;-2.80;99.90;;;;;;4919315;29;20375;-73
2022/12/13 09:48:19;;;;;;;39.70;17.17;;;-2.70;99.90;;;;;;4918569;29;20390;-74
2022/12/13 09:50:46;;;;;;;37.53;17.38;;;-2.80;99.90;;;;;;4917190;29;20028;-74
2022/12/13 09:53:15;;;;;;;34.60;15.95;;;-2.70;99.90;;;;;;4917617;29;20028;-73
2022/12/13 09:55:47;;;;;;;36.00;17.17;;;-2.60;99.90;;;;;;4918070;29;20036;-74
2022/12/13 09:58:31;;;;;;;36.45;17.10;;;-2.50;99.90;;;;;;4918601;29;20052;-74
2022/12/13 10:00:57;;;;;;;35.78;15.93;;;-2.50;99.90;;;;;;4918701;29;20035;-74
2022/12/13 10:03:24;;;;;;;35.50;17.83;;;-2.50;99.90;;;;;;4919652;29;20032;-73
2022/12/13 10:06:11;;;;;;;36.15;16.25;;;-2.40;99.90;;;;;;4914143;29;20044;-73
2022/12/13 10:08:42;;;;;;;32.85;15.13;;;-2.40;99.90;;;;;;4898895;29;20029;-73
2022/12/13 10:11:12;;;;;;;33.78;16.27;;;-2.30;99.90;;;;;;4899904;29;20063;-73
2022/12/13 10:13:48;;;;;;;43.17;16.20;;;-2.20;99.90;;;;;;4898232;29;20459;-73
2022/12/13 10:16:34;;;;;;;34.35;14.43;;;-2.10;99.90;;;;;;4899728;29;20017;-73
2022/12/13 10:19:29;;;;;;;30.98;15.68;;;-2.00;99.90;;;;;;4898706;29;20081;-73
2022/12/13 10:21:55;;;;;;;33.70;15.93;;;-2.00;99.90;;;;;;4891570;29;20041;-73
2022/12/13 10:24:29;;;;;;;31.60;14.18;;;-2.00;99.90;;;;;;4898081;29;20051;-73
2022/12/13 10:27:12;;;;;;;28.90;14.35;;;-1.90;99.90;;;;;;4897980;29;20039;-73
2022/12/13 10:29:56;;;;;;;34.33;16.52;;;-1.90;99.90;;;;;;4898322;29;20029;-72
2022/12/13 10:32:22;;;;;;;34.88;15.77;;;-1.90;99.90;;;;;;4899366;29;20104;-72
2022/12/13 10:34:48;;;;;;;31.43;14.77;;;-1.80;99.90;;;;;;4898115;29;20423;-72
2022/12/13 10:37:39;;;;;;;34.88;15.70;;;-1.80;99.90;;;;;;4898873;29;20273;-72
2022/12/13 10:40:05;;;;;;;30.90;13.77;;;-1.80;99.90;;;;;;4895454;29;20127;-73
2022/12/13 10:42:31;;;;;;;31.37;14.83;;;-1.80;99.90;;;;;;4899400;29;20060;-73
2022/12/13 10:45:15;;;;;;;29.47;14.90;;;-1.80;99.90;;;;;;4897627;29;20276;-73
2022/12/13 10:47:43;;;;;;;31.92;15.13;;;-1.70;99.90;;;;;;4899016;29;20031;-73
2022/12/13 10:50:23;;;;;;;32.30;15.38;;;-1.80;99.90;;;;;;4898684;29;20038;-73
2022/12/13 10:52:49;;;;;;;28.00;14.38;;;-1.70;99.90;;;;;;4916643;29;20060;-73
2022/12/13 10:55:33;;;;;;;35.33;16.30;;;-1.70;99.90;;;;;;4918191;29;20442;-73
2022/12/13 10:58:10;;;;;;;32.33;14.90;;;-1.60;99.90;;;;;;4916825;29;20056;-73
2022/12/13 11:00:43;;;;;;;40.45;16.02;;;-1.50;99.90;;;;;;4917178;29;20039;-73
2022/12/13 11:03:31;;;;;;;39.22;15.90;;;-1.50;99.90;;;;;;4916690;29;20120;-73
2022/12/13 11:06:11;;;;;;;;;;;-1.50;99.90;;;;;;4920192;29;20046;-73
2022/12/13 11:08:37;;;;;;;29.33;14.60;;;-1.50;99.90;;;;;;4921092;29;20079;-74
2022/12/13 11:11:05;;;;;;;31.27;15.15;;;-1.50;99.90;;;;;;4922231;29;20056;-73
2022/12/13 11:13:53;;;;;;;31.55;15.55;;;-1.40;99.90;;;;;;4921304;29;20446;-73
2022/12/13 11:16:34;;;;;;;29.85;14.48;;;-1.40;99.90;;;;;;4923610;29;20091;-73
2022/12/13 11:19:03;;;;;;;28.70;14.43;;;-1.30;99.90;;;;;;4923895;29;20046;-73
2022/12/13 11:21:32;;;;;;;31.98;14.32;;;-1.40;99.90;;;;;;4932684;29;20070;-73
2022/12/13 11:24:00;;;;;;;29.58;14.27;;;-1.30;99.90;;;;;;4929546;29;20390;-73
2022/12/13 11:26:27;;;;;;;32.03;15.27;;;-1.20;99.90;;;;;;4931887;29;20043;-73
2022/12/13 11:29:11;;;;;;;29.50;14.15;;;-1.10;99.90;;;;;;4923816;29;20370;-73
2022/12/13 11:32:04;;;;;;;32.65;14.55;;;-1.30;99.90;;;;;;4923058;29;20032;-73
2022/12/13 11:34:41;;;;;;;28.58;13.80;;;-1.30;99.90;;;;;;4921001;29;20029;-73
2022/12/13 11:37:32;;;;;;;28.83;14.25;;;-1.40;99.90;;;;;;4922437;29;20016;-73
2022/12/13 11:40:38;;;;;;;34.28;13.98;;;-1.30;99.90;;;;;;4921742;29;20024;-72
2022/12/13 11:43:23;;;;;;;31.30;14.77;;;-1.20;99.90;;;;;;4920981;29;20028;-74
2022/12/13 11:45:54;;;;;;;28.70;13.52;;;-1.10;99.90;;;;;;4920858;29;20032;-72
2022/12/13 11:48:49;;;;;;;32.58;15.60;;;-1.10;99.90;;;;;;4920306;29;20035;-73
2022/12/13 11:51:24;;;;;;;32.65;14.52;;;-1.10;99.90;;;;;;4863431;29;20037;-73
2022/12/13 11:54:01;;;;;;;31.42;14.73;;;-1.10;99.90;;;;;;4848163;29;20153;-72
2022/12/13 11:56:35;;;;;;;28.33;13.93;;;-1.00;99.90;;;;;;4848118;29;20403;-72
2022/12/13 11:59:07;;;;;;;27.70;12.90;;;-1.00;99.90;;;;;;4863426;29;20030;-72
2022/12/13 12:01:45;;;;;;;25.00;13.20;;;-1.10;99.90;;;;;;4864620;29;20044;-72
2022/12/13 12:04:22;;;;;;;27.50;11.88;;;-1.00;99.90;;;;;;4847763;29;20086;-72
2022/12/13 12:06:55;;;;;;;25.80;12.95;;;-1.00;99.90;;;;;;4864463;29;20041;-73
2022/12/13 12:09:26;;;;;;;24.60;12.77;;;-1.00;99.90;;;;;;4850293;29;20042;-72
2022/12/13 12:12:01;;;;;;;30.23;12.75;;;-0.90;99.90;;;;;;4856628;29;20032;-74
2022/12/13 12:14:52;;;;;;;21.40;11.70;;;-0.80;99.90;;;;;;4855610;29;20057;-73
2022/12/13 12:17:23;;;;;;;29.55;13.60;;;-0.80;99.90;;;;;;4856706;29;20149;-72
2022/12/13 12:19:53;;;;;;;29.95;12.70;;;-0.80;99.90;;;;;;4864186;29;20033;-73
2022/12/13 12:22:36;;;;;;;24.58;12.95;;;-0.80;99.90;;;;;;4863312;29;20064;-73
2022/12/13 12:25:21;;;;;;;31.25;14.27;;;-0.80;99.90;;;;;;4862963;29;20062;-72
2022/12/13 12:28:21;;;;;;;25.92;13.60;;;-0.90;99.90;;;;;;4897429;29;20482;-72
2022/12/13 12:31:19;;;;;;;27.70;12.68;;;-0.90;99.90;;;;;;4923057;29;20080;-73
2022/12/13 12:34:12;;;;;;;24.70;11.82;;;-1.00;99.90;;;;;;4927118;29;20027;-72
2022/12/13 12:37:11;;;;;;;28.25;13.40;;;-0.90;99.90;;;;;;4919942;29;20466;-73
2022/12/13 12:40:01;;;;;;;28.33;13.20;;;-0.90;99.90;;;;;;4920364;29;20552;-73
2022/12/13 12:43:05;;;;;;;29.55;13.40;;;-1.00;99.90;;;;;;4919828;29;20405;-73
2022/12/13 12:46:18;;;;;;;27.20;12.63;;;-1.00;99.90;;;;;;4891556;29;20132;-72
2022/12/13 12:48:57;;;;;;;28.10;13.10;;;-1.00;99.90;;;;;;4863313;29;20056;-72